Time;durP1;ratioP1;P1;durP2;ratioP2;P2;SDS_P1;SDS_P2;PMS_P1;PMS_P2;Temp;Humidity;BMP_temperature;BMP_pressure;BME280_temperature;BME280_humidity;BME280_pressure;Samples;Min_cycle;Max_cycle;Signal;HPM_P1;HPM_P2
2023/04/29 00:01:34;;;;;;;3.57;2.20;;;;;;;;;;4983121;28;20308;-62
2023/04/29 00:04:00;;;;;;;4.25;2.00;;;;;;;;;;5001137;28;20065;-63
2023/04/29 00:06:25;;;;;;;2.88;2.00;;;;;;;;;;4996427;28;20551;-63
2023/04/29 00:08:52;;;;;;;3.03;1.93;;;;;;;;;;5000768;28;20521;-63
2023/04/29 00:11:17;;;;;;;2.72;1.80;;;;;;;;;;5001820;28;20307;-62
2023/04/29 00:13:42;;;;;;;3.13;1.57;;;;;;;;;;5017899;28;20050;-63
2023/04/29 00:16:10;;;;;;;3.63;2.10;;;;;;;;;;5003885;28;20304;-64
2023/04/29 00:18:36;;;;;;;3.75;2.22;;;;;;;;;;4994150;28;20048;-63
2023/04/29 00:21:04;;;;;;;3.08;1.67;;;;;;;;;;5017102;28;20018;-63
2023/04/29 00:23:30;;;;;;;3.25;1.85;;;;;;;;;;5011998;28;20457;-63
2023/04/29 00:25:55;;;;;;;2.78;1.80;;;;;;;;;;4972185;28;20030;-64
2023/04/29 00:28:21;;;;;;;3.05;1.83;;;;;;;;;;4993621;28;20052;-62
2023/04/29 00:30:46;;;;;;;2.88;1.75;;;;;;;;;;4983658;28;20128;-65
2023/04/29 00:33:11;;;;;;;3.40;2.00;;;;;;;;;;5004399;28;20034;-63
2023/04/29 00:35:37;;;;;;;3.33;2.00;;;;;;;;;;4986428;28;20076;-63
2023/04/29 00:38:02;;;;;;;3.67;1.88;;;;;;;;;;5016795;28;20101;-65
2023/04/29 00:40:27;;;;;;;3.90;1.80;;;;;;;;;;5020927;28;20029;-65
2023/04/29 00:42:52;;;;;;;3.08;1.90;;;;;;;;;;5019725;28;20278;-63
2023/04/29 00:45:18;;;;;;;2.87;2.10;;;;;;;;;;5007526;28;20105;-63
2023/04/29 00:47:43;;;;;;;3.17;1.90;;;;;;;;;;5003493;28;20113;-62
2023/04/29 00:50:08;;;;;;;2.70;1.73;;;;;;;;;;5014874;28;20136;-63
2023/04/29 00:52:34;;;;;;;2.88;1.70;;;;;;;;;;5014016;28;20095;-61
2023/04/29 00:54:59;;;;;;;3.00;1.90;;;;;;;;;;4974184;28;20018;-63
2023/04/29 00:57:27;;;;;;;3.33;1.93;;;;;;;;;;5014466;28;20029;-62
2023/04/29 00:59:53;;;;;;;2.53;1.88;;;;;;;;;;4999678;28;20418;-65
2023/04/29 01:02:18;;;;;;;4.30;2.00;;;;;;;;;;5003950;28;20100;-63
2023/04/29 01:04:43;;;;;;;3.10;2.00;;;;;;;;;;5017547;28;20052;-63
2023/04/29 01:07:13;;;;;;;2.93;1.97;;;;;;;;;;5007065;28;20087;-62
2023/04/29 01:09:38;;;;;;;3.25;1.88;;;;;;;;;;5020644;28;20276;-63
2023/04/29 01:12:22;;;;;;;3.77;2.13;;;;;;;;;;5019625;28;20420;-63
2023/04/29 01:14:52;;;;;;;3.13;1.83;;;;;;;;;;5002130;28;20284;-64
2023/04/29 01:17:17;;;;;;;3.08;1.80;;;;;;;;;;4978794;28;20036;-62
2023/04/29 01:19:49;;;;;;;3.13;2.08;;;;;;;;;;4998611;28;20033;-63
2023/04/29 01:22:16;;;;;;;3.42;1.83;;;;;;;;;;5010554;28;20071;-63
2023/04/29 01:24:42;;;;;;;2.92;1.90;;;;;;;;;;5005488;28;20034;-63
2023/04/29 01:27:20;;;;;;;2.60;1.80;;;;;;;;;;5002041;28;20445;-64
2023/04/29 01:29:55;;;;;;;3.25;2.10;;;;;;;;;;4974525;28;20033;-66
2023/04/29 01:32:39;;;;;;;3.00;1.80;;;;;;;;;;5016724;28;20041;-63
2023/04/29 01:35:15;;;;;;;3.78;1.80;;;;;;;;;;5011026;28;20045;-63
2023/04/29 01:37:56;;;;;;;3.45;1.75;;;;;;;;;;5003368;28;20139;-63
2023/04/29 01:40:25;;;;;;;3.90;2.40;;;;;;;;;;5017596;28;20040;-63
2023/04/29 01:42:50;;;;;;;3.60;2.05;;;;;;;;;;4986078;28;20030;-63
2023/04/29 01:45:16;;;;;;;3.47;1.90;;;;;;;;;;5002730;28;20029;-63
2023/04/29 01:47:41;;;;;;;3.53;2.10;;;;;;;;;;4985322;28;20276;-65
2023/04/29 01:50:07;;;;;;;3.50;1.92;;;;;;;;;;4969022;28;20100;-63
2023/04/29 01:52:32;;;;;;;3.03;1.80;;;;;;;;;;5015667;28;20076;-64
2023/04/29 01:54:57;;;;;;;2.67;1.80;;;;;;;;;;5031534;28;20457;-63
2023/04/29 01:57:23;;;;;;;3.55;2.20;;;;;;;;;;5013711;28;20092;-63
2023/04/29 01:59:48;;;;;;;3.17;2.00;;;;;;;;;;5018084;28;20502;-63
2023/04/29 02:02:19;;;;;;;2.87;1.80;;;;;;;;;;5020990;28;20334;-62
2023/04/29 02:04:45;;;;;;;2.70;1.88;;;;;;;;;;5000706;28;20614;-63
2023/04/29 02:07:10;;;;;;;3.47;2.13;;;;;;;;;;5010622;28;20106;-65
2023/04/29 02:09:35;;;;;;;3.13;2.00;;;;;;;;;;5019260;28;20064;-63
2023/04/29 02:12:03;;;;;;;2.50;1.90;;;;;;;;;;5015861;28;20938;-62
2023/04/29 02:14:29;;;;;;;2.55;1.88;;;;;;;;;;4991530;28;20034;-63
2023/04/29 02:16:54;;;;;;;2.53;1.90;;;;;;;;;;5014762;28;20163;-62
2023/04/29 02:19:19;;;;;;;3.42;2.03;;;;;;;;;;5010283;28;20069;-63
2023/04/29 02:21:44;;;;;;;2.85;2.03;;;;;;;;;;5009998;28;20366;-64
2023/04/29 02:24:10;;;;;;;2.95;1.95;;;;;;;;;;4998077;28;20030;-63
2023/04/29 02:26:36;;;;;;;3.10;2.03;;;;;;;;;;5011198;28;20129;-63
2023/04/29 02:29:02;;;;;;;3.33;2.00;;;;;;;;;;4981820;28;20034;-62
2023/04/29 02:31:28;;;;;;;3.15;1.85;;;;;;;;;;4988794;28;20120;-64
2023/04/29 02:33:53;;;;;;;2.78;1.77;;;;;;;;;;4987875;28;20052;-61
2023/04/29 02:36:19;;;;;;;3.97;2.10;;;;;;;;;;4996345;28;20132;-63
2023/04/29 02:38:44;;;;;;;3.20;2.13;;;;;;;;;;4989399;28;20050;-62
2023/04/29 02:41:09;;;;;;;3.13;2.13;;;;;;;;;;4993465;28;20152;-64
2023/04/29 02:43:34;;;;;;;2.72;1.75;;;;;;;;;;4994535;28;20109;-63
2023/04/29 02:46:00;;;;;;;3.30;1.98;;;;;;;;;;4982184;28;20133;-64
2023/04/29 02:48:25;;;;;;;3.08;1.88;;;;;;;;;;4995469;28;20026;-62
2023/04/29 02:50:51;;;;;;;2.40;1.73;;;;;;;;;;4964795;28;20108;-62
2023/04/29 02:53:16;;;;;;;4.07;2.40;;;;;;;;;;4977912;28;20365;-63
2023/04/29 02:55:42;;;;;;;3.03;1.90;;;;;;;;;;4968510;28;20569;-62
2023/04/29 02:58:08;;;;;;;2.80;1.90;;;;;;;;;;4979683;28;20120;-63
2023/04/29 03:00:33;;;;;;;3.55;2.28;;;;;;;;;;5000188;28;20018;-62
2023/04/29 03:02:58;;;;;;;3.08;1.95;;;;;;;;;;4985362;28;20529;-63
2023/04/29 03:05:23;;;;;;;3.22;2.05;;;;;;;;;;4965000;28;20080;-64
2023/04/29 03:07:49;;;;;;;4.23;2.20;;;;;;;;;;4983790;28;20504;-64
2023/04/29 03:10:14;;;;;;;3.35;1.88;;;;;;;;;;4968091;28;20719;-68
2023/04/29 03:12:39;;;;;;;3.53;2.10;;;;;;;;;;4985853;28;20022;-71
2023/04/29 03:15:06;;;;;;;4.00;2.00;;;;;;;;;;4982482;28;20766;-69
2023/04/29 03:17:31;;;;;;;2.90;1.90;;;;;;;;;;4981809;28;20022;-63
2023/04/29 03:19:57;;;;;;;3.30;1.80;;;;;;;;;;4963849;28;20105;-67
2023/04/29 03:22:22;;;;;;;3.33;2.00;;;;;;;;;;4993536;28;20072;-64
2023/04/29 03:24:47;;;;;;;2.97;1.80;;;;;;;;;;4975123;28;20046;-68
2023/04/29 03:27:13;;;;;;;3.03;2.00;;;;;;;;;;4986001;28;20280;-62
2023/04/29 03:29:38;;;;;;;3.13;1.85;;;;;;;;;;4986884;28;20290;-67
2023/04/29 03:32:04;;;;;;;2.53;2.00;;;;;;;;;;4988764;28;20574;-68
2023/04/29 03:34:29;;;;;;;3.65;2.03;;;;;;;;;;4985670;28;20728;-65
2023/04/29 03:36:56;;;;;;;3.00;1.85;;;;;;;;;;4989688;28;20029;-63
2023/04/29 03:39:21;;;;;;;3.53;2.40;;;;;;;;;;4978751;28;20454;-72
2023/04/29 03:41:46;;;;;;;3.13;2.00;;;;;;;;;;5007235;28;20025;-68
2023/04/29 03:44:12;;;;;;;2.85;2.15;;;;;;;;;;4987367;28;21075;-65
2023/04/29 03:46:37;;;;;;;2.72;1.98;;;;;;;;;;4989555;28;20042;-65
2023/04/29 03:49:02;;;;;;;3.22;2.03;;;;;;;;;;5008358;28;20087;-65
2023/04/29 03:51:28;;;;;;;2.88;1.95;;;;;;;;;;5002705;28;20148;-65
2023/04/29 03:53:55;;;;;;;2.70;2.13;;;;;;;;;;4996782;28;20064;-66
2023/04/29 03:56:21;;;;;;;2.70;1.98;;;;;;;;;;5003988;28;20046;-65
2023/04/29 03:58:47;;;;;;;3.40;2.25;;;;;;;;;;5009223;28;20748;-64
2023/04/29 04:01:12;;;;;;;3.50;2.17;;;;;;;;;;5008228;28;20050;-61
2023/04/29 04:03:37;;;;;;;3.55;2.08;;;;;;;;;;5006227;28;20350;-63
2023/04/29 04:06:03;;;;;;;3.17;2.10;;;;;;;;;;5008792;28;20052;-65
2023/04/29 04:08:28;;;;;;;3.85;1.90;;;;;;;;;;4978019;28;20297;-66
2023/04/29 04:10:53;;;;;;;3.27;2.40;;;;;;;;;;5005119;28;20057;-64
2023/04/29 04:13:18;;;;;;;4.20;1.98;;;;;;;;;;5008847;28;20046;-67
2023/04/29 04:15:52;;;;;;;4.33;2.00;;;;;;;;;;5011310;28;20096;-74
2023/04/29 04:18:17;;;;;;;4.03;2.20;;;;;;;;;;5007879;28;20144;-65
2023/04/29 04:20:43;;;;;;;4.07;2.20;;;;;;;;;;5009557;28;20121;-71
2023/04/29 04:23:08;;;;;;;4.43;2.20;;;;;;;;;;5009612;28;20350;-68
2023/04/29 04:25:33;;;;;;;3.53;2.13;;;;;;;;;;5007610;28;20292;-70
2023/04/29 04:27:59;;;;;;;3.60;2.33;;;;;;;;;;4989749;28;20048;-66
2023/04/29 04:30:24;;;;;;;4.90;2.25;;;;;;;;;;5007911;28;20730;-65
2023/04/29 04:32:49;;;;;;;3.97;2.30;;;;;;;;;;5007328;28;20086;-71
2023/04/29 04:35:14;;;;;;;3.10;2.30;;;;;;;;;;5007065;28;20044;-72
2023/04/29 04:37:40;;;;;;;4.80;2.70;;;;;;;;;;4985262;28;20308;-64
2023/04/29 04:40:06;;;;;;;3.03;2.27;;;;;;;;;;4986067;28;20034;-61
2023/04/29 04:42:31;;;;;;;4.82;2.33;;;;;;;;;;4985532;28;20042;-66
2023/04/29 04:44:56;;;;;;;2.90;2.28;;;;;;;;;;4988830;28;20048;-70
2023/04/29 04:47:22;;;;;;;3.55;2.38;;;;;;;;;;4990381;28;20041;-69
2023/04/29 04:49:48;;;;;;;3.63;2.10;;;;;;;;;;4987184;28;20073;-65
2023/04/29 04:52:14;;;;;;;3.92;2.20;;;;;;;;;;4989503;28;20030;-69
2023/04/29 04:54:39;;;;;;;3.70;2.50;;;;;;;;;;4992276;28;20627;-65
2023/04/29 04:57:04;;;;;;;3.17;2.38;;;;;;;;;;4975841;28;20376;-67
2023/04/29 04:59:30;;;;;;;3.63;2.17;;;;;;;;;;4987903;28;20053;-63
2023/04/29 05:01:55;;;;;;;4.40;2.40;;;;;;;;;;4985778;28;20492;-66
2023/04/29 05:04:20;;;;;;;4.77;2.17;;;;;;;;;;4990213;28;20034;-71
2023/04/29 05:06:46;;;;;;;4.67;2.20;;;;;;;;;;4989287;28;21207;-68
2023/04/29 05:09:11;;;;;;;3.53;2.40;;;;;;;;;;4991443;28;20777;-67
2023/04/29 05:11:37;;;;;;;3.42;2.30;;;;;;;;;;4992385;28;20502;-69
2023/04/29 05:14:02;;;;;;;4.03;2.13;;;;;;;;;;4972495;28;20117;-65
2023/04/29 05:16:27;;;;;;;3.55;2.28;;;;;;;;;;4991457;28;20040;-68
2023/04/29 05:18:53;;;;;;;3.72;2.10;;;;;;;;;;4991148;28;20129;-67
2023/04/29 05:21:18;;;;;;;3.08;2.05;;;;;;;;;;4991837;28;20113;-65
2023/04/29 05:23:43;;;;;;;3.60;2.10;;;;;;;;;;4995478;28;20044;-67
2023/04/29 05:26:08;;;;;;;4.20;2.05;;;;;;;;;;4991740;28;20099;-70
2023/04/29 05:28:34;;;;;;;6.27;2.20;;;;;;;;;;4992230;28;20542;-70
2023/04/29 05:30:59;;;;;;;4.05;2.10;;;;;;;;;;4992501;28;20317;-66
2023/04/29 05:33:25;;;;;;;5.07;2.58;;;;;;;;;;4990624;28;20037;-64
2023/04/29 05:35:50;;;;;;;5.53;2.45;;;;;;;;;;4992348;28;20137;-64
2023/04/29 05:38:15;;;;;;;3.95;2.15;;;;;;;;;;5003077;28;20053;-67
2023/04/29 05:40:40;;;;;;;3.97;2.23;;;;;;;;;;4999925;28;20037;-69
2023/04/29 05:43:06;;;;;;;3.08;2.10;;;;;;;;;;5010807;28;20462;-63
2023/04/29 05:45:31;;;;;;;3.58;2.22;;;;;;;;;;4984743;28;20466;-63
2023/04/29 05:47:56;;;;;;;5.15;2.28;;;;;;;;;;5001317;28;21332;-69
2023/04/29 05:50:22;;;;;;;3.10;2.10;;;;;;;;;;5012546;28;20046;-69
2023/04/29 05:52:47;;;;;;;3.85;2.53;;;;;;;;;;5023811;28;20034;-64
2023/04/29 05:55:12;;;;;;;3.00;2.30;;;;;;;;;;4994774;28;20077;-64
2023/04/29 05:57:38;;;;;;;5.15;2.22;;;;;;;;;;5020229;28;20354;-63
2023/04/29 06:00:03;;;;;;;2.30;1.98;;;;;;;;;;5001113;28;20037;-66
2023/04/29 06:02:29;;;;;;;3.45;2.50;;;;;;;;;;5000007;28;20037;-68
2023/04/29 06:04:55;;;;;;;4.80;2.42;;;;;;;;;;4981751;28;20082;-66
2023/04/29 06:07:20;;;;;;;3.67;2.25;;;;;;;;;;4997932;28;20080;-65
2023/04/29 06:09:45;;;;;;;3.40;2.23;;;;;;;;;;4982016;28;20046;-66
2023/04/29 06:12:12;;;;;;;3.53;2.22;;;;;;;;;;4992497;28;20308;-67
2023/04/29 06:14:37;;;;;;;3.72;1.90;;;;;;;;;;4991260;28;20030;-66
2023/04/29 06:17:02;;;;;;;3.63;2.20;;;;;;;;;;5008018;28;20413;-67
2023/04/29 06:19:28;;;;;;;3.63;2.13;;;;;;;;;;5010079;28;20041;-69
2023/04/29 06:21:53;;;;;;;3.00;2.40;;;;;;;;;;5008956;28;21007;-65
2023/04/29 06:24:18;;;;;;;2.83;2.10;;;;;;;;;;4990869;28;20037;-71
2023/04/29 06:26:44;;;;;;;2.88;2.20;;;;;;;;;;5010033;28;20292;-71
2023/04/29 06:29:09;;;;;;;2.73;1.80;;;;;;;;;;5010417;28;20112;-65
2023/04/29 06:31:34;;;;;;;7.87;3.70;;;;;;;;;;4973388;28;20404;-62
2023/04/29 06:33:59;;;;;;;4.23;2.50;;;;;;;;;;5000119;28;20775;-67
2023/04/29 06:36:25;;;;;;;3.97;2.20;;;;;;;;;;5009968;28;20288;-69
2023/04/29 06:38:51;;;;;;;2.60;1.92;;;;;;;;;;4992879;28;20042;-63
2023/04/29 06:41:16;;;;;;;3.78;2.13;;;;;;;;;;4993500;28;20042;-64
2023/04/29 06:43:42;;;;;;;2.87;1.90;;;;;;;;;;5005892;28;20041;-72
2023/04/29 06:46:07;;;;;;;4.55;1.92;;;;;;;;;;4992290;28;20293;-65
2023/04/29 06:48:32;;;;;;;3.35;1.80;;;;;;;;;;4989564;28;20042;-68
2023/04/29 06:50:58;;;;;;;4.63;2.27;;;;;;;;;;4997774;28;20054;-67
2023/04/29 06:53:24;;;;;;;2.65;1.88;;;;;;;;;;5010188;28;20095;-65
2023/04/29 06:55:49;;;;;;;3.60;1.93;;;;;;;;;;4979818;28;20670;-66
2023/04/29 06:58:15;;;;;;;8.93;5.60;;;;;;;;;;5007025;28;20288;-70
2023/04/29 07:00:42;;;;;;;6.57;3.33;;;;;;;;;;5006346;28;20046;-66
2023/04/29 07:03:09;;;;;;;3.40;2.35;;;;;;;;;;4990679;28;20683;-66
2023/04/29 07:05:35;;;;;;;4.28;2.63;;;;;;;;;;5004223;28;20030;-69
2023/04/29 07:08:00;;;;;;;3.90;2.55;;;;;;;;;;5006812;28;20033;-65
2023/04/29 07:10:26;;;;;;;3.97;2.37;;;;;;;;;;4992393;28;20617;-66
2023/04/29 07:12:51;;;;;;;3.60;2.40;;;;;;;;;;4997261;28;20319;-67
2023/04/29 07:15:17;;;;;;;6.70;2.55;;;;;;;;;;5007320;28;20073;-63
2023/04/29 07:17:42;;;;;;;2.57;2.10;;;;;;;;;;5006084;28;20068;-63
2023/04/29 07:20:08;;;;;;;3.33;2.20;;;;;;;;;;4979023;28;20072;-70
2023/04/29 07:22:33;;;;;;;3.67;2.20;;;;;;;;;;5004436;28;20327;-63
2023/04/29 07:24:58;;;;;;;3.03;2.10;;;;;;;;;;4992934;28;20041;-69
2023/04/29 07:27:23;;;;;;;3.28;2.30;;;;;;;;;;5005636;28;20323;-65
2023/04/29 07:29:49;;;;;;;3.17;2.05;;;;;;;;;;5007188;28;20064;-67
2023/04/29 07:32:14;;;;;;;3.73;2.10;;;;;;;;;;4994757;28;20297;-66
2023/04/29 07:34:40;;;;;;;3.20;1.95;;;;;;;;;;4991549;28;20436;-69
2023/04/29 07:37:05;;;;;;;3.08;2.00;;;;;;;;;;5009485;28;20049;-69
2023/04/29 07:39:30;;;;;;;3.13;2.10;;;;;;;;;;5008940;28;20116;-63
2023/04/29 07:41:56;;;;;;;3.58;2.40;;;;;;;;;;5004686;28;20344;-69
2023/04/29 07:44:21;;;;;;;4.82;3.22;;;;;;;;;;4988037;28;20037;-66
2023/04/29 07:46:46;;;;;;;9.80;3.60;;;;;;;;;;5010405;28;21168;-65
2023/04/29 07:49:12;;;;;;;7.53;4.07;;;;;;;;;;5010181;28;20291;-69
2023/04/29 07:51:40;;;;;;;7.07;4.40;;;;;;;;;;4994516;28;20053;-66
2023/04/29 07:54:05;;;;;;;6.60;3.75;;;;;;;;;;4992857;28;20112;-69
2023/04/29 07:56:30;;;;;;;8.48;3.70;;;;;;;;;;5009346;28;20053;-62
2023/04/29 07:58:55;;;;;;;7.15;4.07;;;;;;;;;;4981692;28;20497;-69
2023/04/29 08:01:21;;;;;;;7.87;4.53;;;;;;;;;;4996175;28;20459;-70
2023/04/29 08:03:46;;;;;;;9.10;4.47;;;;;;;;;;4991793;28;20520;-69
2023/04/29 08:06:11;;;;;;;8.82;4.50;;;;;;;;;;5008807;28;20034;-71
2023/04/29 08:08:37;;;;;;;7.43;4.50;;;;;;;;;;4994727;28;20041;-73
2023/04/29 08:11:02;;;;;;;7.37;4.17;;;;;;;;;;4999089;28;20131;-68
2023/04/29 08:13:27;;;;;;;7.47;3.85;;;;;;;;;;5008447;28;20797;-73
2023/04/29 08:15:53;;;;;;;7.10;4.20;;;;;;;;;;5010004;28;20103;-73
2023/04/29 08:18:18;;;;;;;6.93;4.07;;;;;;;;;;5008088;28;20354;-66
2023/04/29 08:20:43;;;;;;;7.88;4.28;;;;;;;;;;5011495;28;20040;-69
2023/04/29 08:23:08;;;;;;;7.93;4.20;;;;;;;;;;5010936;28;20048;-72
2023/04/29 08:25:34;;;;;;;10.77;4.07;;;;;;;;;;4994231;28;20038;-68
2023/04/29 08:27:59;;;;;;;7.13;3.60;;;;;;;;;;5007391;28;20301;-63
2023/04/29 08:30:24;;;;;;;5.93;3.77;;;;;;;;;;5010118;28;20773;-71
2023/04/29 08:32:50;;;;;;;5.93;3.80;;;;;;;;;;5006686;28;20353;-72
2023/04/29 08:35:15;;;;;;;7.22;3.95;;;;;;;;;;4977351;28;20322;-65
2023/04/29 08:37:40;;;;;;;7.03;3.97;;;;;;;;;;4979611;28;20547;-71
2023/04/29 08:40:07;;;;;;;7.23;3.33;;;;;;;;;;5010079;28;20041;-72
2023/04/29 08:42:33;;;;;;;5.80;3.22;;;;;;;;;;4997086;28;20345;-65
2023/04/29 08:44:58;;;;;;;4.63;3.10;;;;;;;;;;4979187;28;20646;-73
2023/04/29 08:47:24;;;;;;;5.97;3.00;;;;;;;;;;5008209;28;20041;-69
2023/04/29 08:49:50;;;;;;;4.95;3.33;;;;;;;;;;4984242;28;20038;-68
2023/04/29 08:52:15;;;;;;;4.68;3.22;;;;;;;;;;4979101;28;20045;-67
2023/04/29 08:54:40;;;;;;;5.20;3.78;;;;;;;;;;4995194;28;20084;-65
2023/04/29 08:57:06;;;;;;;6.32;3.40;;;;;;;;;;5001557;28;20224;-70
2023/04/29 08:59:31;;;;;;;6.45;3.30;;;;;;;;;;5010097;28;20079;-70
2023/04/29 09:01:56;;;;;;;9.27;3.60;;;;;;;;;;5007014;28;20795;-70
2023/04/29 09:04:25;;;;;;;5.30;3.20;;;;;;;;;;4997761;28;20293;-72
2023/04/29 09:06:51;;;;;;;7.28;3.60;;;;;;;;;;5003895;28;20302;-69
2023/04/29 09:09:17;;;;;;;5.28;3.10;;;;;;;;;;5022123;28;20055;-72
2023/04/29 09:11:42;;;;;;;4.57;3.05;;;;;;;;;;5004870;28;20072;-72
2023/04/29 09:14:08;;;;;;;7.10;3.30;;;;;;;;;;5006571;28;20212;-73
2023/04/29 09:19:36;;;;;;;5.38;3.45;;;;;;;;;;5006271;28;20414;-71
2023/04/29 09:22:01;;;;;;;5.40;3.25;;;;;;;;;;5004561;28;20038;-71
2023/04/29 09:24:27;;;;;;;6.38;3.13;;;;;;;;;;4990848;28;20081;-69
2023/04/29 09:26:52;;;;;;;5.05;3.38;;;;;;;;;;5003395;28;20058;-65
2023/04/29 09:29:17;;;;;;;6.38;3.03;;;;;;;;;;4985282;28;20443;-65
2023/04/29 09:31:43;;;;;;;6.35;3.30;;;;;;;;;;5005340;28;20049;-73
2023/04/29 09:34:10;;;;;;;6.18;3.22;;;;;;;;;;4983128;28;20025;-68
2023/04/29 09:36:48;;;;;;;8.63;3.67;;;;;;;;;;5009165;28;20061;-66
2023/04/29 09:39:17;;;;;;;4.93;3.50;;;;;;;;;;4992364;28;20049;-64
2023/04/29 09:41:51;;;;;;;7.00;4.22;;;;;;;;;;5018850;28;20041;-61
2023/04/29 09:44:16;;;;;;;6.80;3.65;;;;;;;;;;5016893;28;20036;-68
2023/04/29 09:46:42;;;;;;;7.13;3.67;;;;;;;;;;5029263;28;20029;-72
2023/04/29 09:49:26;;;;;;;7.47;3.73;;;;;;;;;;4987542;28;20030;-70
2023/04/29 09:51:52;;;;;;;7.05;3.83;;;;;;;;;;4989565;28;20297;-72
2023/04/29 09:54:21;;;;;;;7.82;4.13;;;;;;;;;;4995956;28;20425;-63
2023/04/29 09:56:50;;;;;;;6.15;4.00;;;;;;;;;;5016161;28;20026;-71
2023/04/29 09:59:16;;;;;;;5.97;3.72;;;;;;;;;;4984698;28;20371;-68
2023/04/29 10:01:41;;;;;;;8.57;4.32;;;;;;;;;;4999306;28;20033;-63
2023/04/29 10:04:07;;;;;;;7.57;4.27;;;;;;;;;;4993436;28;20036;-71
2023/04/29 10:06:33;;;;;;;6.43;3.85;;;;;;;;;;4987346;28;20281;-70
2023/04/29 10:08:58;;;;;;;7.65;4.40;;;;;;;;;;4984966;28;20398;-71
2023/04/29 10:11:24;;;;;;;10.23;4.50;;;;;;;;;;4985503;28;20539;-70
2023/04/29 10:13:49;;;;;;;8.25;4.40;;;;;;;;;;4989839;28;20058;-63
2023/04/29 10:16:24;;;;;;;9.32;4.53;;;;;;;;;;4996551;28;20117;-74
2023/04/29 10:18:52;;;;;;;8.32;4.28;;;;;;;;;;5009084;28;20094;-68
2023/04/29 10:21:18;;;;;;;7.45;3.63;;;;;;;;;;4999596;28;20524;-66
2023/04/29 10:23:44;;;;;;;8.05;4.15;;;;;;;;;;4996224;28;20034;-67
2023/04/29 10:26:10;;;;;;;5.95;3.90;;;;;;;;;;4983918;28;20102;-63
2023/04/29 10:28:35;;;;;;;8.05;4.10;;;;;;;;;;4996221;28;20029;-72
2023/04/29 10:31:02;;;;;;;9.47;3.80;;;;;;;;;;4988597;28;20046;-67
2023/04/29 10:33:28;;;;;;;9.00;3.53;;;;;;;;;;4987770;28;20288;-71
2023/04/29 10:35:54;;;;;;;6.35;3.25;;;;;;;;;;4987163;28;20034;-67
2023/04/29 10:38:25;;;;;;;7.18;3.63;;;;;;;;;;4989836;28;20053;-71
2023/04/29 10:40:50;;;;;;;7.30;3.40;;;;;;;;;;4990418;28;20057;-70
2023/04/29 10:43:15;;;;;;;7.20;3.28;;;;;;;;;;5007016;28;20107;-63
2023/04/29 10:45:41;;;;;;;4.88;3.05;;;;;;;;;;4998903;28;20092;-69
2023/04/29 10:48:10;;;;;;;6.13;3.25;;;;;;;;;;5002163;28;20041;-71
2023/04/29 10:50:42;;;;;;;7.05;3.10;;;;;;;;;;5011465;28;20068;-68
2023/04/29 10:53:07;;;;;;;10.60;3.47;;;;;;;;;;4992159;28;20030;-64
2023/04/29 10:55:36;;;;;;;5.17;2.80;;;;;;;;;;4989761;28;20064;-66
2023/04/29 10:58:02;;;;;;;6.25;2.70;;;;;;;;;;4995924;28;20881;-70
2023/04/29 11:00:28;;;;;;;7.20;3.05;;;;;;;;;;4994749;28;20069;-71
2023/04/29 11:03:04;;;;;;;6.93;2.80;;;;;;;;;;5001779;28;20518;-70
2023/04/29 11:05:30;;;;;;;4.88;2.88;;;;;;;;;;4993576;28;20522;-69
2023/04/29 11:08:08;;;;;;;4.45;2.80;;;;;;;;;;4983899;28;20049;-70
2023/04/29 11:10:36;;;;;;;4.88;2.22;;;;;;;;;;5006939;28;20637;-71
2023/04/29 11:13:21;;;;;;;5.07;2.25;;;;;;;;;;5002382;28;20064;-68
2023/04/29 11:15:46;;;;;;;4.55;2.13;;;;;;;;;;4983196;28;20045;-65
2023/04/29 11:18:11;;;;;;;6.23;2.33;;;;;;;;;;4983855;28;20056;-70
2023/04/29 11:20:55;;;;;;;3.83;2.37;;;;;;;;;;5006129;28;20040;-71
2023/04/29 11:23:22;;;;;;;4.78;2.40;;;;;;;;;;5002434;28;20459;-71
2023/04/29 11:25:48;;;;;;;5.85;2.33;;;;;;;;;;4988426;28;20445;-71
2023/04/29 11:28:13;;;;;;;4.57;2.10;;;;;;;;;;4978129;28;20042;-71
2023/04/29 11:30:38;;;;;;;6.33;1.93;;;;;;;;;;4993132;28;20076;-67
2023/04/29 11:33:03;;;;;;;3.70;1.53;;;;;;;;;;4982064;28;20863;-69
2023/04/29 11:35:29;;;;;;;4.00;1.73;;;;;;;;;;4982330;28;20037;-63
2023/04/29 11:37:55;;;;;;;2.78;1.55;;;;;;;;;;4982757;28;20054;-69
2023/04/29 11:40:20;;;;;;;4.18;1.77;;;;;;;;;;4995842;28;20606;-67
2023/04/29 11:42:46;;;;;;;3.30;1.53;;;;;;;;;;4995141;28;20037;-65
2023/04/29 11:45:11;;;;;;;5.40;1.65;;;;;;;;;;5004023;28;20896;-68
2023/04/29 11:47:37;;;;;;;3.40;1.48;;;;;;;;;;5007174;28;20038;-71
2023/04/29 11:50:07;;;;;;;4.05;1.52;;;;;;;;;;4993087;28;20068;-68
2023/04/29 11:52:33;;;;;;;3.35;1.25;;;;;;;;;;4997985;28;20167;-72
2023/04/29 11:55:05;;;;;;;3.40;1.40;;;;;;;;;;5012595;28;20129;-71
2023/04/29 11:57:30;;;;;;;2.90;1.65;;;;;;;;;;5030713;23;20057;-62
2023/04/29 11:59:56;;;;;;;2.90;1.52;;;;;;;;;;5034063;28;20462;-62
2023/04/29 12:02:22;;;;;;;2.60;1.60;;;;;;;;;;5037783;28;20056;-61
2023/04/29 12:04:47;;;;;;;3.17;1.42;;;;;;;;;;5034285;28;20403;-62
2023/04/29 12:07:16;;;;;;;3.08;1.45;;;;;;;;;;5037452;28;20052;-62
2023/04/29 12:09:42;;;;;;;2.80;1.60;;;;;;;;;;5037646;28;20033;-62
2023/04/29 12:12:07;;;;;;;3.70;1.98;;;;;;;;;;5016570;28;20057;-62
2023/04/29 12:14:33;;;;;;;3.33;1.50;;;;;;;;;;5038894;28;20497;-62
2023/04/29 12:16:58;;;;;;;3.22;1.30;;;;;;;;;;5020937;28;20033;-62
2023/04/29 12:19:23;;;;;;;3.07;1.50;;;;;;;;;;5042551;28;20142;-62
2023/04/29 12:21:49;;;;;;;2.55;1.63;;;;;;;;;;5041066;28;20298;-62
2023/04/29 12:24:15;;;;;;;2.75;1.52;;;;;;;;;;5041501;28;20076;-61
2023/04/29 12:26:40;;;;;;;2.97;1.60;;;;;;;;;;5042445;23;20232;-64
2023/04/29 12:29:05;;;;;;;4.45;1.38;;;;;;;;;;5026554;28;20116;-63
2023/04/29 12:31:32;;;;;;;4.03;1.53;;;;;;;;;;5028566;28;20049;-62
2023/04/29 12:33:57;;;;;;;3.22;1.63;;;;;;;;;;5045226;28;20041;-64
2023/04/29 12:36:23;;;;;;;3.35;1.42;;;;;;;;;;5045123;28;20044;-63
2023/04/29 12:38:48;;;;;;;3.80;1.70;;;;;;;;;;5025160;28;20033;-64
2023/04/29 12:41:16;;;;;;;4.10;1.50;;;;;;;;;;5023957;28;20037;-64
2023/04/29 12:43:41;;;;;;;2.50;1.10;;;;;;;;;;5037420;28;20060;-63
2023/04/29 12:46:06;;;;;;;3.50;1.55;;;;;;;;;;5044302;28;20044;-61
2023/04/29 12:48:32;;;;;;;2.33;1.30;;;;;;;;;;5045926;28;20126;-64
2023/04/29 12:50:58;;;;;;;4.70;1.48;;;;;;;;;;5045813;28;20191;-64
2023/04/29 12:53:24;;;;;;;3.92;1.50;;;;;;;;;;5040132;28;20029;-65
2023/04/29 12:55:50;;;;;;;2.40;1.08;;;;;;;;;;5044943;28;20048;-65
2023/04/29 12:58:15;;;;;;;2.55;1.15;;;;;;;;;;5029448;28;20567;-61
2023/04/29 13:00:40;;;;;;;4.05;1.45;;;;;;;;;;5027871;28;20041;-64
2023/04/29 13:03:06;;;;;;;4.23;1.20;;;;;;;;;;5026015;28;20029;-65
2023/04/29 13:05:31;;;;;;;4.78;1.30;;;;;;;;;;5044966;28;20028;-63
2023/04/29 13:07:57;;;;;;;2.50;1.27;;;;;;;;;;5045705;28;20037;-66
2023/04/29 13:10:22;;;;;;;3.33;1.40;;;;;;;;;;5024557;28;20275;-64
2023/04/29 13:12:48;;;;;;;1.90;1.10;;;;;;;;;;5026650;28;20025;-63
2023/04/29 13:15:14;;;;;;;2.45;1.20;;;;;;;;;;5030639;28;20052;-64
2023/04/29 13:17:40;;;;;;;2.40;1.30;;;;;;;;;;5044649;28;20547;-64
2023/04/29 13:20:05;;;;;;;3.97;1.33;;;;;;;;;;5049421;28;20131;-63
2023/04/29 13:22:31;;;;;;;2.40;1.17;;;;;;;;;;5048831;28;20024;-61
2023/04/29 13:24:56;;;;;;;2.53;1.23;;;;;;;;;;5044637;28;20037;-62
2023/04/29 13:27:21;;;;;;;2.77;1.20;;;;;;;;;;5045464;28;20048;-64
2023/04/29 13:29:47;;;;;;;3.23;1.23;;;;;;;;;;5043008;28;20740;-65
2023/04/29 13:32:12;;;;;;;2.55;1.20;;;;;;;;;;5037939;28;20791;-63
2023/04/29 13:34:39;;;;;;;2.70;1.20;;;;;;;;;;5041007;28;20072;-63
2023/04/29 13:37:04;;;;;;;2.15;1.25;;;;;;;;;;5026086;28;20807;-63
2023/04/29 13:39:29;;;;;;;3.33;1.20;;;;;;;;;;5044602;28;20048;-63
2023/04/29 13:41:55;;;;;;;2.67;1.00;;;;;;;;;;5044524;28;20049;-64
2023/04/29 13:44:20;;;;;;;6.22;1.40;;;;;;;;;;5043053;28;20421;-64
2023/04/29 13:46:45;;;;;;;2.50;1.00;;;;;;;;;;5043317;28;20135;-61
2023/04/29 13:49:10;;;;;;;3.60;0.87;;;;;;;;;;5047351;28;20045;-62
2023/04/29 13:51:36;;;;;;;1.80;1.13;;;;;;;;;;5042831;28;20307;-64
2023/04/29 13:54:01;;;;;;;4.13;1.35;;;;;;;;;;5043773;28;20276;-65
2023/04/29 13:56:26;;;;;;;2.43;1.10;;;;;;;;;;5042375;28;20052;-64
2023/04/29 13:58:51;;;;;;;2.45;1.15;;;;;;;;;;5044394;28;20029;-65
2023/04/29 14:01:17;;;;;;;3.70;1.23;;;;;;;;;;5043362;28;20029;-65
2023/04/29 14:03:43;;;;;;;2.37;1.20;;;;;;;;;;5039306;28;20483;-64
2023/04/29 14:06:08;;;;;;;2.67;1.20;;;;;;;;;;5041643;28;20507;-64
2023/04/29 14:08:33;;;;;;;2.97;1.27;;;;;;;;;;5009493;28;20037;-63
2023/04/29 14:10:59;;;;;;;3.17;1.20;;;;;;;;;;5025401;28;20103;-63
2023/04/29 14:13:24;;;;;;;3.63;1.10;;;;;;;;;;5043459;28;20029;-63
2023/04/29 14:15:49;;;;;;;3.33;1.30;;;;;;;;;;5042684;28;20583;-65
2023/04/29 14:18:14;;;;;;;2.00;1.35;;;;;;;;;;5044036;28;20116;-65
2023/04/29 14:20:40;;;;;;;3.70;1.20;;;;;;;;;;5026165;28;20037;-64
2023/04/29 14:23:05;;;;;;;2.93;1.37;;;;;;;;;;5043428;28;20040;-63
2023/04/29 14:25:30;;;;;;;4.50;1.30;;;;;;;;;;5025358;28;20049;-63
2023/04/29 14:27:56;;;;;;;4.03;1.30;;;;;;;;;;5024507;28;20048;-62
2023/04/29 14:30:21;;;;;;;3.42;1.20;;;;;;;;;;5047336;28;20287;-65
2023/04/29 14:32:46;;;;;;;1.80;0.93;;;;;;;;;;5043354;28;20040;-62
2023/04/29 14:35:12;;;;;;;2.92;1.10;;;;;;;;;;5042333;28;20048;-62
2023/04/29 14:37:37;;;;;;;2.67;1.20;;;;;;;;;;5042100;28;20074;-63
2023/04/29 14:40:03;;;;;;;2.50;1.10;;;;;;;;;;5043605;28;20033;-65